Time;durP1;ratioP1;P1;durP2;ratioP2;P2;SDS_P1;SDS_P2;PMS_P1;PMS_P2;Temp;Humidity;BMP_temperature;BMP_pressure;BME280_temperature;BME280_humidity;BME280_pressure;Samples;Min_cycle;Max_cycle;Signal;HPM_P1;HPM_P2
2021/07/13 00:01:56;;;;;;;8.93;4.60;;;;;;;;;;5028009;28;20229;-71
2021/07/13 00:04:22;;;;;;;6.65;4.57;;;;;;;;;;5028092;28;20473;-70
2021/07/13 00:06:48;;;;;;;9.82;5.10;;;;;;;;;;5026479;28;20021;-70
2021/07/13 00:09:14;;;;;;;6.60;4.60;;;;;;;;;;5026460;28;20381;-71
2021/07/13 00:11:41;;;;;;;6.75;4.95;;;;;;;;;;5027922;28;20025;-70
2021/07/13 00:14:07;;;;;;;7.88;5.03;;;;;;;;;;5027876;28;20037;-71
2021/07/13 00:16:34;;;;;;;6.35;4.68;;;;;;;;;;5027293;28;20053;-70
2021/07/13 00:19:00;;;;;;;7.45;4.93;;;;;;;;;;5027898;28;20026;-71
2021/07/13 00:21:27;;;;;;;5.70;5.03;;;;;;;;;;5026373;28;20084;-71
2021/07/13 00:23:53;;;;;;;6.25;5.30;;;;;;;;;;5027697;28;20068;-70
2021/07/13 00:26:19;;;;;;;7.20;5.18;;;;;;;;;;5027660;28;20025;-70
2021/07/13 00:28:45;;;;;;;6.53;5.18;;;;;;;;;;5027454;28;20030;-70
2021/07/13 00:31:11;;;;;;;7.10;5.47;;;;;;;;;;5027705;28;20079;-71
2021/07/13 00:33:37;;;;;;;6.90;5.30;;;;;;;;;;5025717;28;20533;-70
2021/07/13 00:36:04;;;;;;;7.10;4.88;;;;;;;;;;5027603;28;20021;-71
2021/07/13 00:38:30;;;;;;;6.55;4.93;;;;;;;;;;5027558;28;20122;-71
2021/07/13 00:40:56;;;;;;;6.05;5.20;;;;;;;;;;5026999;28;20626;-70
2021/07/13 00:43:23;;;;;;;8.23;5.13;;;;;;;;;;5027325;28;20116;-71
2021/07/13 00:45:49;;;;;;;9.70;5.70;;;;;;;;;;5025812;28;20028;-70
2021/07/13 00:48:15;;;;;;;7.97;5.88;;;;;;;;;;5027574;28;20116;-71
2021/07/13 00:50:44;;;;;;;6.18;5.50;;;;;;;;;;5027691;28;20048;-72
2021/07/13 00:53:10;;;;;;;9.88;5.68;;;;;;;;;;5027009;28;20025;-70
2021/07/13 00:55:36;;;;;;;9.13;5.32;;;;;;;;;;5026996;28;20429;-70
2021/07/13 00:58:04;;;;;;;8.05;5.10;;;;;;;;;;5027272;28;20113;-71
2021/07/13 01:00:31;;;;;;;6.53;5.13;;;;;;;;;;5025939;28;20115;-70
2021/07/13 01:02:58;;;;;;;13.43;5.82;;;;;;;;;;5026799;28;20021;-70
2021/07/13 01:05:26;;;;;;;6.20;5.55;;;;;;;;;;5026602;28;20029;-70
2021/07/13 01:08:12;;;;;;;5.75;5.22;;;;;;;;;;5025706;28;20120;-70
2021/07/13 01:10:57;;;;;;;8.30;5.70;;;;;;;;;;5026165;28;20025;-70
2021/07/13 01:13:41;;;;;;;7.57;5.45;;;;;;;;;;5025647;28;20154;-70
2021/07/13 01:16:40;;;;;;;7.93;5.35;;;;;;;;;;5013849;28;20087;-70
2021/07/13 01:19:16;;;;;;;12.55;6.30;;;;;;;;;;5011151;28;20941;-71
2021/07/13 01:21:55;;;;;;;10.73;6.05;;;;;;;;;;5025301;28;20025;-71
2021/07/13 01:24:44;;;;;;;9.88;5.70;;;;;;;;;;5025711;28;20017;-70
2021/07/13 01:27:11;;;;;;;9.05;5.70;;;;;;;;;;5017592;28;20044;-70
2021/07/13 01:29:38;;;;;;;8.23;4.95;;;;;;;;;;5026669;28;20056;-70
2021/07/13 01:32:06;;;;;;;7.82;4.70;;;;;;;;;;5025073;28;20491;-70
2021/07/13 01:34:40;;;;;;;6.28;5.32;;;;;;;;;;5026556;28;20053;-70
2021/07/13 01:37:07;;;;;;;6.88;5.20;;;;;;;;;;5026452;28;20021;-71
2021/07/13 01:39:35;;;;;;;16.88;5.97;;;;;;;;;;5024629;28;20635;-71
2021/07/13 01:42:03;;;;;;;11.05;5.47;;;;;;;;;;5026402;28;20512;-70
2021/07/13 01:44:30;;;;;;;7.60;6.05;;;;;;;;;;5026141;28;20028;-70
2021/07/13 01:46:56;;;;;;;5.97;5.38;;;;;;;;;;5026559;28;20052;-70
2021/07/13 01:49:23;;;;;;;7.68;5.60;;;;;;;;;;5024975;28;20041;-70
2021/07/13 01:51:51;;;;;;;6.78;5.65;;;;;;;;;;5026499;28;20433;-71
2021/07/13 01:54:18;;;;;;;7.43;5.45;;;;;;;;;;5026229;28;20040;-70
2021/07/13 01:56:45;;;;;;;11.50;5.85;;;;;;;;;;5026477;28;20469;-70
2021/07/13 01:59:13;;;;;;;5.90;5.32;;;;;;;;;;5026131;28;20029;-71
2021/07/13 02:01:40;;;;;;;6.20;5.55;;;;;;;;;;5026368;28;20033;-69
2021/07/13 02:04:07;;;;;;;6.65;5.93;;;;;;;;;;5025141;28;20367;-70
2021/07/13 02:06:34;;;;;;;9.90;5.78;;;;;;;;;;5026333;28;20036;-71
2021/07/13 02:09:01;;;;;;;7.63;5.30;;;;;;;;;;5026256;28;20116;-70
2021/07/13 02:11:28;;;;;;;6.82;6.00;;;;;;;;;;5026321;28;20084;-70
2021/07/13 02:13:55;;;;;;;10.00;5.72;;;;;;;;;;5024511;28;20124;-70
2021/07/13 02:16:21;;;;;;;9.77;5.25;;;;;;;;;;5025698;28;20071;-71
2021/07/13 02:18:48;;;;;;;7.05;5.97;;;;;;;;;;5025788;28;20076;-70
2021/07/13 02:21:15;;;;;;;10.20;6.35;;;;;;;;;;5026206;28;20020;-70
2021/07/13 02:23:42;;;;;;;7.22;5.72;;;;;;;;;;5025044;28;20024;-71
2021/07/13 02:26:09;;;;;;;7.75;5.68;;;;;;;;;;5026202;28;20021;-72
2021/07/13 02:28:40;;;;;;;7.22;5.45;;;;;;;;;;5025908;28;20030;-70
2021/07/13 02:31:16;;;;;;;6.05;5.45;;;;;;;;;;5013191;28;20417;-71
2021/07/13 02:33:58;;;;;;;9.10;5.68;;;;;;;;;;5023838;28;20030;-70
2021/07/13 02:36:26;;;;;;;9.25;5.47;;;;;;;;;;5043708;28;20100;-71
2021/07/13 02:38:53;;;;;;;8.18;6.40;;;;;;;;;;5043106;28;20456;-69
2021/07/13 02:41:20;;;;;;;8.25;5.38;;;;;;;;;;5044355;28;20017;-70
2021/07/13 02:43:47;;;;;;;6.60;6.00;;;;;;;;;;5032430;28;20025;-70
2021/07/13 02:46:14;;;;;;;8.65;6.28;;;;;;;;;;5045155;28;20168;-70
2021/07/13 02:48:41;;;;;;;10.18;6.38;;;;;;;;;;5040643;28;20768;-70
2021/07/13 02:51:08;;;;;;;11.75;6.20;;;;;;;;;;5048984;28;20112;-70
2021/07/13 02:53:35;;;;;;;9.27;5.95;;;;;;;;;;5049502;28;20029;-70
2021/07/13 02:56:03;;;;;;;7.60;6.65;;;;;;;;;;5049237;28;20388;-70
2021/07/13 02:58:29;;;;;;;9.00;6.07;;;;;;;;;;5041008;28;20625;-70
2021/07/13 03:00:56;;;;;;;8.40;5.80;;;;;;;;;;5043989;28;20393;-70
2021/07/13 03:03:22;;;;;;;6.97;5.93;;;;;;;;;;5031043;28;20552;-70
2021/07/13 03:05:53;;;;;;;6.13;5.10;;;;;;;;;;5044701;28;20465;-70
2021/07/13 03:08:21;;;;;;;6.25;5.65;;;;;;;;;;5039479;28;20648;-70
2021/07/13 03:10:48;;;;;;;6.15;5.03;;;;;;;;;;5033345;28;20033;-69
2021/07/13 03:13:14;;;;;;;6.35;5.28;;;;;;;;;;5037612;28;20124;-69
2021/07/13 03:15:41;;;;;;;7.68;5.82;;;;;;;;;;5044493;28;20046;-70
2021/07/13 03:18:07;;;;;;;9.68;5.50;;;;;;;;;;5044199;28;20033;-70
2021/07/13 03:20:34;;;;;;;7.10;6.40;;;;;;;;;;5042449;28;20021;-70
2021/07/13 03:23:00;;;;;;;6.78;6.07;;;;;;;;;;5044338;28;20033;-69
2021/07/13 03:25:28;;;;;;;9.95;5.75;;;;;;;;;;5040077;28;20037;-69
2021/07/13 03:27:56;;;;;;;7.75;5.75;;;;;;;;;;5044266;28;20017;-70
2021/07/13 03:30:22;;;;;;;7.07;5.85;;;;;;;;;;5043784;28;20025;-70
2021/07/13 03:32:49;;;;;;;6.13;5.47;;;;;;;;;;5040106;28;20029;-70
2021/07/13 03:35:16;;;;;;;5.93;5.25;;;;;;;;;;5043774;28;20032;-70
2021/07/13 03:37:42;;;;;;;6.88;5.80;;;;;;;;;;5032261;28;20049;-70
2021/07/13 03:40:09;;;;;;;8.65;5.47;;;;;;;;;;5036542;28;20044;-69
2021/07/13 03:42:36;;;;;;;7.38;5.18;;;;;;;;;;5037742;28;20030;-70
2021/07/13 03:45:02;;;;;;;5.18;4.68;;;;;;;;;;5036800;28;20036;-70
2021/07/13 03:47:28;;;;;;;7.07;5.45;;;;;;;;;;5044091;28;20373;-69
2021/07/13 03:49:56;;;;;;;5.40;4.53;;;;;;;;;;5043291;28;20108;-69
2021/07/13 03:52:22;;;;;;;7.50;5.88;;;;;;;;;;5041789;28;20025;-69
2021/07/13 03:54:48;;;;;;;9.35;6.25;;;;;;;;;;5036258;28;20039;-70
2021/07/13 03:57:15;;;;;;;5.75;5.03;;;;;;;;;;5038532;28;20487;-69
2021/07/13 03:59:41;;;;;;;5.93;5.28;;;;;;;;;;5043554;28;20033;-69
2021/07/13 04:02:07;;;;;;;7.03;5.93;;;;;;;;;;5037178;28;20052;-69
2021/07/13 04:04:33;;;;;;;10.40;5.43;;;;;;;;;;5042651;28;20489;-70
2021/07/13 04:06:59;;;;;;;8.57;5.50;;;;;;;;;;5034497;28;20024;-70
2021/07/13 04:09:25;;;;;;;8.73;5.10;;;;;;;;;;5042972;28;20092;-69
2021/07/13 04:11:52;;;;;;;8.00;5.63;;;;;;;;;;5041813;28;20387;-70
2021/07/13 04:14:18;;;;;;;9.52;5.90;;;;;;;;;;5038870;28;20041;-70
2021/07/13 04:16:44;;;;;;;5.63;4.80;;;;;;;;;;5041965;28;20052;-70
2021/07/13 04:19:10;;;;;;;4.72;4.25;;;;;;;;;;5043515;28;20035;-70
2021/07/13 04:21:36;;;;;;;5.95;3.83;;;;;;;;;;5036467;28;20021;-70
2021/07/13 04:24:03;;;;;;;4.38;4.07;;;;;;;;;;5042825;28;20025;-69
2021/07/13 04:26:29;;;;;;;4.93;4.30;;;;;;;;;;5027184;28;20481;-69
2021/07/13 04:28:55;;;;;;;4.68;4.20;;;;;;;;;;5041583;28;20883;-69
2021/07/13 04:31:21;;;;;;;6.43;4.68;;;;;;;;;;5042531;28;20040;-70
2021/07/13 04:33:47;;;;;;;6.32;4.95;;;;;;;;;;5040191;28;20044;-72
2021/07/13 04:36:13;;;;;;;8.10;5.00;;;;;;;;;;5041428;28;20890;-70
2021/07/13 04:38:41;;;;;;;6.20;5.07;;;;;;;;;;5036278;28;20118;-69
2021/07/13 04:41:07;;;;;;;8.18;5.30;;;;;;;;;;5042751;28;20025;-70
2021/07/13 04:43:33;;;;;;;7.30;5.32;;;;;;;;;;5042261;28;20060;-70
2021/07/13 04:46:00;;;;;;;5.70;5.00;;;;;;;;;;5042549;28;20049;-70
2021/07/13 04:48:26;;;;;;;8.07;5.88;;;;;;;;;;5036767;28;20018;-69
2021/07/13 04:50:52;;;;;;;7.38;5.68;;;;;;;;;;5037006;28;20036;-69
2021/07/13 04:53:18;;;;;;;5.50;5.05;;;;;;;;;;5042767;28;20916;-70
2021/07/13 04:55:44;;;;;;;9.10;5.50;;;;;;;;;;5028894;28;20033;-70
2021/07/13 04:58:10;;;;;;;6.00;5.40;;;;;;;;;;5042638;28;20108;-71
2021/07/13 05:00:36;;;;;;;6.90;5.32;;;;;;;;;;5035723;28;20021;-69
2021/07/13 05:03:03;;;;;;;7.25;5.18;;;;;;;;;;5041062;28;20026;-69
2021/07/13 05:05:29;;;;;;;5.75;5.25;;;;;;;;;;5041401;28;20587;-69
2021/07/13 05:07:55;;;;;;;4.95;4.40;;;;;;;;;;5042313;28;20603;-69
2021/07/13 05:10:21;;;;;;;7.00;4.22;;;;;;;;;;5041895;28;20029;-70
2021/07/13 05:12:47;;;;;;;4.88;3.90;;;;;;;;;;5040441;28;20112;-70
2021/07/13 05:15:15;;;;;;;13.10;4.88;;;;;;;;;;5029497;28;20037;-72
2021/07/13 05:17:41;;;;;;;7.35;4.75;;;;;;;;;;5042195;28;20033;-69
2021/07/13 05:20:09;;;;;;;10.10;5.28;;;;;;;;;;5041831;28;20082;-69
2021/07/13 05:22:36;;;;;;;5.25;4.75;;;;;;;;;;5036671;28;20041;-70
2021/07/13 05:25:03;;;;;;;8.20;4.78;;;;;;;;;;5034279;28;20026;-70
2021/07/13 05:27:32;;;;;;;7.53;4.90;;;;;;;;;;5033947;28;20025;-69
2021/07/13 05:29:58;;;;;;;7.47;4.93;;;;;;;;;;5041222;28;20044;-70
2021/07/13 05:32:24;;;;;;;7.80;4.85;;;;;;;;;;5041577;28;20799;-69
2021/07/13 05:34:50;;;;;;;10.82;5.43;;;;;;;;;;5032824;28;20397;-70
2021/07/13 05:37:17;;;;;;;7.07;5.25;;;;;;;;;;5042353;28;20094;-69
2021/07/13 05:39:43;;;;;;;6.75;4.93;;;;;;;;;;5041637;28;20048;-69
2021/07/13 05:42:10;;;;;;;10.85;6.47;;;;;;;;;;5038823;28;20032;-70
2021/07/13 05:44:36;;;;;;;9.95;6.25;;;;;;;;;;5029557;28;20556;-70
2021/07/13 05:47:03;;;;;;;9.80;5.47;;;;;;;;;;5040442;28;20082;-70
2021/07/13 05:49:29;;;;;;;13.50;6.25;;;;;;;;;;5031671;28;20017;-70
2021/07/13 05:51:55;;;;;;;7.72;5.90;;;;;;;;;;5029416;28;20575;-70
2021/07/13 05:54:21;;;;;;;6.03;5.43;;;;;;;;;;5040665;28;20032;-70
2021/07/13 05:56:47;;;;;;;6.50;5.75;;;;;;;;;;5033397;28;20412;-70
2021/07/13 05:59:13;;;;;;;7.90;6.40;;;;;;;;;;5039185;28;20456;-70
2021/07/13 06:01:40;;;;;;;6.07;4.90;;;;;;;;;;5041052;28;20386;-70
2021/07/13 06:04:06;;;;;;;14.13;10.68;;;;;;;;;;5031363;28;20033;-70
2021/07/13 06:06:32;;;;;;;18.77;14.80;;;;;;;;;;5037093;28;20202;-70
2021/07/13 06:08:58;;;;;;;23.05;17.25;;;;;;;;;;5041286;28;20021;-69
2021/07/13 06:11:24;;;;;;;12.40;11.10;;;;;;;;;;5034565;28;20029;-70
2021/07/13 06:13:50;;;;;;;8.60;6.70;;;;;;;;;;5034985;28;20036;-70
2021/07/13 06:16:16;;;;;;;7.93;5.53;;;;;;;;;;5043335;28;20143;-70
2021/07/13 06:18:43;;;;;;;5.65;4.80;;;;;;;;;;5045479;28;20070;-69
2021/07/13 06:21:09;;;;;;;5.90;5.13;;;;;;;;;;5041856;28;20109;-70
2021/07/13 06:23:36;;;;;;;10.80;6.07;;;;;;;;;;5024901;28;20044;-70
2021/07/13 06:26:02;;;;;;;7.20;5.80;;;;;;;;;;5007814;28;20516;-69
2021/07/13 06:28:28;;;;;;;8.02;6.13;;;;;;;;;;5005738;28;20037;-70
2021/07/13 06:30:54;;;;;;;7.05;5.82;;;;;;;;;;5006922;28;20026;-69
2021/07/13 06:33:21;;;;;;;7.30;6.60;;;;;;;;;;5010939;28;20025;-69
2021/07/13 06:35:48;;;;;;;9.40;6.45;;;;;;;;;;5006612;28;20493;-70
2021/07/13 06:38:15;;;;;;;7.00;6.30;;;;;;;;;;5036786;28;20049;-70
2021/07/13 06:40:41;;;;;;;8.30;6.65;;;;;;;;;;5042940;28;20029;-70
2021/07/13 06:43:07;;;;;;;5.97;5.38;;;;;;;;;;5041278;28;20701;-70
2021/07/13 06:45:33;;;;;;;6.45;5.82;;;;;;;;;;5044524;28;20032;-73
2021/07/13 06:47:59;;;;;;;7.20;6.07;;;;;;;;;;5044674;28;20086;-70
2021/07/13 06:50:26;;;;;;;9.98;6.45;;;;;;;;;;5042712;28;20039;-70
2021/07/13 06:52:53;;;;;;;7.85;5.95;;;;;;;;;;5018884;28;20445;-70
2021/07/13 06:55:19;;;;;;;7.30;6.55;;;;;;;;;;5008019;28;20033;-69
2021/07/13 06:57:46;;;;;;;7.30;5.90;;;;;;;;;;5009411;28;20072;-70
2021/07/13 07:00:12;;;;;;;6.43;5.30;;;;;;;;;;5021612;28;20449;-69
2021/07/13 07:02:39;;;;;;;10.60;6.38;;;;;;;;;;5026281;28;20027;-71
2021/07/13 07:05:05;;;;;;;6.95;6.25;;;;;;;;;;5015377;28;20033;-70
2021/07/13 07:07:32;;;;;;;7.80;6.18;;;;;;;;;;5021007;28;20017;-70
2021/07/13 07:09:58;;;;;;;8.60;6.70;;;;;;;;;;5019084;28;20159;-70
2021/07/13 07:12:25;;;;;;;8.82;6.82;;;;;;;;;;5021804;28;20083;-70
2021/07/13 07:14:51;;;;;;;9.27;6.63;;;;;;;;;;5018169;28;20071;-70
2021/07/13 07:17:17;;;;;;;10.00;6.75;;;;;;;;;;5028356;28;20038;-70
2021/07/13 07:19:43;;;;;;;8.95;6.15;;;;;;;;;;5032014;28;20100;-70
2021/07/13 07:22:09;;;;;;;6.78;6.05;;;;;;;;;;5024888;28;20091;-70
2021/07/13 07:24:35;;;;;;;14.80;6.65;;;;;;;;;;5027602;28;20044;-71
2021/07/13 07:27:01;;;;;;;8.18;6.15;;;;;;;;;;5029663;28;20385;-70
2021/07/13 07:29:28;;;;;;;8.63;6.00;;;;;;;;;;5024523;28;20049;-70
2021/07/13 07:31:54;;;;;;;7.90;6.60;;;;;;;;;;5031708;28;20081;-70
2021/07/13 07:34:20;;;;;;;8.88;6.05;;;;;;;;;;5026392;28;20652;-73
2021/07/13 07:36:46;;;;;;;7.07;5.97;;;;;;;;;;5028922;28;20032;-70
2021/07/13 07:39:12;;;;;;;7.75;5.70;;;;;;;;;;5028250;28;20639;-71
2021/07/13 07:41:39;;;;;;;9.20;6.13;;;;;;;;;;5027528;28;20030;-71
2021/07/13 07:44:05;;;;;;;7.82;6.35;;;;;;;;;;5008501;28;20501;-72
2021/07/13 07:46:31;;;;;;;7.47;6.43;;;;;;;;;;5009835;28;20128;-72
2021/07/13 07:48:58;;;;;;;9.48;6.78;;;;;;;;;;5027673;28;20022;-70
2021/07/13 07:51:24;;;;;;;8.43;7.57;;;;;;;;;;5026986;28;20029;-72
2021/07/13 07:53:54;;;;;;;8.63;7.82;;;;;;;;;;5011209;28;20582;-72
2021/07/13 07:56:20;;;;;;;8.68;7.90;;;;;;;;;;5028755;28;20029;-73
2021/07/13 07:58:46;;;;;;;8.05;7.35;;;;;;;;;;5026752;28;20017;-72
2021/07/13 08:01:12;;;;;;;8.82;7.93;;;;;;;;;;5030066;28;20040;-72
2021/07/13 08:03:39;;;;;;;11.95;8.23;;;;;;;;;;5026183;28;20448;-71
2021/07/13 08:06:05;;;;;;;11.02;8.35;;;;;;;;;;5023833;28;20115;-71
2021/07/13 08:08:31;;;;;;;11.77;8.82;;;;;;;;;;5021145;28;20452;-71
2021/07/13 08:10:57;;;;;;;12.07;8.80;;;;;;;;;;5029392;28;20033;-71
2021/07/13 08:13:23;;;;;;;12.55;8.35;;;;;;;;;;5031262;28;20104;-71
2021/07/13 08:15:50;;;;;;;8.45;7.57;;;;;;;;;;5026210;28;20401;-71
2021/07/13 08:18:16;;;;;;;10.80;8.38;;;;;;;;;;5031367;28;20032;-71
2021/07/13 08:20:42;;;;;;;10.10;7.93;;;;;;;;;;5023437;28;20148;-71
2021/07/13 08:23:08;;;;;;;8.00;7.30;;;;;;;;;;5030417;28;20598;-71
2021/07/13 08:25:34;;;;;;;8.38;7.45;;;;;;;;;;5026925;28;20432;-71
2021/07/13 08:28:01;;;;;;;7.55;6.72;;;;;;;;;;5029846;28;20025;-71
2021/07/13 08:30:28;;;;;;;9.23;8.10;;;;;;;;;;5030018;28;20105;-71
2021/07/13 08:32:55;;;;;;;9.43;8.25;;;;;;;;;;5027793;28;20025;-71
2021/07/13 08:35:21;;;;;;;11.13;8.07;;;;;;;;;;5029942;28;20086;-72
2021/07/13 08:37:49;;;;;;;11.30;8.25;;;;;;;;;;5027854;28;20040;-71
2021/07/13 08:40:15;;;;;;;13.88;7.43;;;;;;;;;;5031950;28;20091;-71
2021/07/13 08:42:42;;;;;;;11.38;7.97;;;;;;;;;;5033584;28;20041;-71
2021/07/13 08:45:10;;;;;;;7.82;6.72;;;;;;;;;;5041103;28;20121;-70
2021/07/13 08:47:37;;;;;;;11.07;7.80;;;;;;;;;;5042326;28;20016;-71
2021/07/13 08:50:04;;;;;;;9.98;7.88;;;;;;;;;;5033283;28;20029;-71
2021/07/13 08:52:31;;;;;;;8.25;7.22;;;;;;;;;;5039879;28;20021;-71
2021/07/13 08:54:58;;;;;;;7.88;7.10;;;;;;;;;;5034868;28;20055;-70
2021/07/13 08:57:24;;;;;;;8.55;7.38;;;;;;;;;;5038470;28;20473;-70
2021/07/13 08:59:50;;;;;;;8.27;7.55;;;;;;;;;;5040574;28;20037;-70
2021/07/13 09:02:16;;;;;;;7.97;6.97;;;;;;;;;;5042214;28;20277;-70
2021/07/13 09:04:42;;;;;;;10.02;6.47;;;;;;;;;;5041756;28;20075;-71
2021/07/13 09:07:11;;;;;;;9.27;6.63;;;;;;;;;;5040817;28;20105;-71
2021/07/13 09:09:39;;;;;;;6.93;6.28;;;;;;;;;;5043152;28;20083;-71
2021/07/13 09:12:24;;;;;;;9.52;6.68;;;;;;;;;;5042286;28;20048;-72
2021/07/13 09:14:52;;;;;;;9.07;7.15;;;;;;;;;;5041979;28;20251;-71
2021/07/13 09:17:27;;;;;;;8.80;7.00;;;;;;;;;;5041331;28;20055;-70
2021/07/13 09:20:01;;;;;;;11.38;7.10;;;;;;;;;;5024580;28;20405;-70
2021/07/13 09:22:28;;;;;;;8.32;6.97;;;;;;;;;;5034076;28;20419;-70
2021/07/13 09:24:54;;;;;;;7.63;6.38;;;;;;;;;;5037943;28;20041;-72
2021/07/13 09:27:22;;;;;;;10.57;6.65;;;;;;;;;;5031699;28;20039;-71
2021/07/13 09:29:50;;;;;;;6.70;5.85;;;;;;;;;;5030251;28;20044;-71
2021/07/13 09:32:29;;;;;;;7.47;5.72;;;;;;;;;;5034201;28;20409;-71
2021/07/13 09:35:03;;;;;;;7.95;5.97;;;;;;;;;;5032261;28;20040;-71
2021/07/13 09:37:31;;;;;;;10.07;6.32;;;;;;;;;;5031529;28;20415;-70
2021/07/13 09:40:00;;;;;;;12.48;6.43;;;;;;;;;;5029776;28;20030;-71
2021/07/13 09:42:27;;;;;;;7.78;6.00;;;;;;;;;;5034874;28;20021;-71
2021/07/13 09:44:53;;;;;;;6.70;6.05;;;;;;;;;;5039867;28;20108;-71
2021/07/13 09:47:31;;;;;;;6.97;6.32;;;;;;;;;;5038795;28;20033;-70
2021/07/13 09:50:01;;;;;;;9.93;7.20;;;;;;;;;;5040874;28;20033;-71
2021/07/13 09:52:27;;;;;;;7.57;5.88;;;;;;;;;;5038967;28;20025;-70
2021/07/13 09:54:53;;;;;;;5.32;4.82;;;;;;;;;;5040351;28;20159;-71
2021/07/13 09:57:23;;;;;;;5.78;5.18;;;;;;;;;;5039007;28;20502;-70
2021/07/13 09:59:56;;;;;;;6.03;5.43;;;;;;;;;;5039244;28;20037;-71
2021/07/13 10:02:28;;;;;;;7.22;5.28;;;;;;;;;;5039965;28;20159;-70
2021/07/13 10:04:56;;;;;;;6.05;5.47;;;;;;;;;;5040627;28;20408;-71
2021/07/13 10:07:22;;;;;;;6.10;5.47;;;;;;;;;;5038313;28;20098;-70
2021/07/13 10:09:52;;;;;;;5.70;4.68;;;;;;;;;;5040004;28;20048;-70
2021/07/13 10:12:19;;;;;;;6.28;5.13;;;;;;;;;;5040541;28;20158;-71
2021/07/13 10:14:47;;;;;;;7.38;5.00;;;;;;;;;;5040093;28;20033;-70
2021/07/13 10:17:13;;;;;;;7.38;5.65;;;;;;;;;;5040050;28;20052;-70
2021/07/13 10:19:48;;;;;;;5.90;5.30;;;;;;;;;;5039475;28;20523;-70
2021/07/13 10:22:16;;;;;;;8.00;5.05;;;;;;;;;;5039160;28;20028;-70
2021/07/13 10:24:44;;;;;;;7.63;5.13;;;;;;;;;;5039855;28;20105;-70
2021/07/13 10:27:13;;;;;;;5.90;4.90;;;;;;;;;;5040683;28;20052;-70
2021/07/13 10:29:40;;;;;;;6.53;5.07;;;;;;;;;;5039751;28;20021;-70
2021/07/13 10:32:27;;;;;;;8.32;5.20;;;;;;;;;;5040413;28;20441;-70
2021/07/13 10:34:56;;;;;;;8.73;5.88;;;;;;;;;;5038169;28;20045;-70
2021/07/13 10:37:28;;;;;;;9.82;5.20;;;;;;;;;;5039058;28;20021;-72
2021/07/13 10:39:59;;;;;;;9.25;5.28;;;;;;;;;;5039389;28;20407;-71
2021/07/13 10:42:40;;;;;;;8.43;5.60;;;;;;;;;;5040021;28;20492;-71
2021/07/13 10:45:22;;;;;;;7.68;5.43;;;;;;;;;;5040891;28;20057;-71
2021/07/13 10:48:04;;;;;;;7.10;5.13;;;;;;;;;;5013871;28;20024;-71
2021/07/13 10:50:30;;;;;;;5.45;4.95;;;;;;;;;;5038713;28;20048;-72
2021/07/13 10:52:58;;;;;;;15.25;5.85;;;;;;;;;;5040711;28;20385;-71
2021/07/13 10:55:44;;;;;;;6.28;5.38;;;;;;;;;;5040624;28;20048;-71
2021/07/13 10:58:10;;;;;;;7.18;5.60;;;;;;;;;;5016100;28;20104;-71
2021/07/13 11:00:51;;;;;;;7.05;5.88;;;;;;;;;;5043718;28;20336;-71
2021/07/13 11:03:30;;;;;;;10.75;5.90;;;;;;;;;;5044237;28;20029;-71
2021/07/13 11:06:03;;;;;;;7.03;5.70;;;;;;;;;;5043608;28;20059;-70
2021/07/13 11:08:41;;;;;;;5.57;5.07;;;;;;;;;;5042654;28;20017;-71
2021/07/13 11:11:08;;;;;;;6.63;5.68;;;;;;;;;;5043954;28;20119;-71
2021/07/13 11:13:35;;;;;;;6.80;5.70;;;;;;;;;;5041737;28;20171;-70
2021/07/13 11:16:01;;;;;;;7.38;5.63;;;;;;;;;;5043587;28;20110;-70
2021/07/13 11:18:32;;;;;;;6.43;5.82;;;;;;;;;;5042315;28;20109;-71
2021/07/13 11:21:16;;;;;;;7.93;5.30;;;;;;;;;;5043392;28;20033;-70
2021/07/13 11:23:43;;;;;;;6.82;5.10;;;;;;;;;;5036610;28;20110;-70
2021/07/13 11:26:10;;;;;;;5.97;5.38;;;;;;;;;;5042207;28;20023;-70
2021/07/13 11:28:37;;;;;;;6.40;5.32;;;;;;;;;;5044312;28;20700;-70
2021/07/13 11:31:06;;;;;;;11.05;5.90;;;;;;;;;;5037663;28;20025;-70
2021/07/13 11:33:33;;;;;;;6.47;4.97;;;;;;;;;;5043166;28;20029;-71
2021/07/13 11:36:00;;;;;;;7.68;4.40;;;;;;;;;;5043525;28;20029;-70
2021/07/13 11:38:28;;;;;;;6.97;4.20;;;;;;;;;;5040164;28;20028;-70
2021/07/13 11:41:12;;;;;;;7.82;4.28;;;;;;;;;;5041837;28;20033;-70
2021/07/13 11:43:39;;;;;;;12.52;4.40;;;;;;;;;;5037857;28;20112;-71
2021/07/13 11:46:12;;;;;;;8.13;3.80;;;;;;;;;;5043242;28;20031;-73
2021/07/13 11:48:39;;;;;;;5.53;3.90;;;;;;;;;;5041186;28;20471;-73
2021/07/13 11:51:08;;;;;;;5.25;3.70;;;;;;;;;;5043118;28;20032;-74
2021/07/13 11:53:34;;;;;;;11.02;2.85;;;;;;;;;;5043249;28;20086;-73
2021/07/13 11:56:01;;;;;;;3.67;3.10;;;;;;;;;;5042645;28;20029;-73
2021/07/13 11:58:31;;;;;;;3.20;2.90;;;;;;;;;;5043006;28;20610;-73
2021/07/13 12:01:16;;;;;;;5.32;3.08;;;;;;;;;;5041172;28;20055;-73
2021/07/13 12:03:43;;;;;;;3.83;3.05;;;;;;;;;;5043045;28;20595;-72
2021/07/13 12:06:10;;;;;;;5.93;2.92;;;;;;;;;;5042817;28;20127;-73
2021/07/13 12:08:37;;;;;;;3.88;2.70;;;;;;;;;;5042400;28;20021;-73
2021/07/13 12:11:03;;;;;;;5.90;3.40;;;;;;;;;;5040042;28;20028;-71
2021/07/13 12:13:29;;;;;;;5.43;3.10;;;;;;;;;;5042782;28;20552;-71
2021/07/13 12:16:15;;;;;;;3.10;2.80;;;;;;;;;;5042265;28;20049;-71
2021/07/13 12:18:41;;;;;;;4.57;3.58;;;;;;;;;;5040959;28;20021;-72
2021/07/13 12:21:07;;;;;;;4.53;3.67;;;;;;;;;;5042155;28;20396;-72
2021/07/13 12:23:34;;;;;;;8.80;3.83;;;;;;;;;;5042113;28;20105;-72
2021/07/13 12:26:18;;;;;;;6.18;3.78;;;;;;;;;;5032282;28;20033;-71
2021/07/13 12:29:04;;;;;;;6.72;3.08;;;;;;;;;;5019178;28;20492;-71
2021/07/13 12:31:31;;;;;;;4.88;3.00;;;;;;;;;;5040600;28;20060;-71
2021/07/13 12:33:58;;;;;;;3.88;2.78;;;;;;;;;;5042440;28;20156;-72
2021/07/13 12:36:25;;;;;;;10.68;3.05;;;;;;;;;;5042009;28;20536;-71
2021/07/13 12:38:52;;;;;;;3.90;2.80;;;;;;;;;;5042675;28;20032;-71
2021/07/13 12:41:19;;;;;;;6.57;3.20;;;;;;;;;;5041921;28;20396;-72
2021/07/13 12:43:49;;;;;;;6.07;2.85;;;;;;;;;;5040969;28;20013;-71
2021/07/13 12:46:30;;;;;;;3.90;2.90;;;;;;;;;;5042033;28;20346;-71
2021/07/13 12:48:57;;;;;;;6.65;3.10;;;;;;;;;;5041564;28;20020;-71
2021/07/13 12:51:27;;;;;;;4.50;2.80;;;;;;;;;;5036411;28;20175;-71
2021/07/13 12:54:06;;;;;;;7.57;3.20;;;;;;;;;;5031004;28;20033;-71
2021/07/13 12:56:34;;;;;;;3.72;2.80;;;;;;;;;;5033092;28;20121;-71
2021/07/13 12:59:09;;;;;;;5.32;2.97;;;;;;;;;;5039574;28;20052;-71
2021/07/13 13:01:36;;;;;;;11.65;3.90;;;;;;;;;;5041333;28;20095;-71
2021/07/13 13:04:19;;;;;;;6.90;3.30;;;;;;;;;;5041868;28;20027;-71
2021/07/13 13:06:45;;;;;;;11.00;3.33;;;;;;;;;;5042170;28;20090;-72
2021/07/13 13:09:13;;;;;;;7.70;3.53;;;;;;;;;;5039407;28;20033;-71
2021/07/13 13:11:40;;;;;;;10.80;3.50;;;;;;;;;;5041457;28;20021;-71
2021/07/13 13:14:08;;;;;;;9.50;3.45;;;;;;;;;;5041486;28;20290;-72
2021/07/13 13:16:38;;;;;;;7.57;3.30;;;;;;;;;;5041441;28;20044;-71
2021/07/13 13:19:05;;;;;;;10.97;3.93;;;;;;;;;;5039680;28;20114;-71
2021/07/13 13:21:32;;;;;;;9.82;3.60;;;;;;;;;;5039037;28;20083;-71
2021/07/13 13:24:00;;;;;;;22.08;6.05;;;;;;;;;;5040752;28;20413;-71
2021/07/13 13:26:27;;;;;;;32.70;6.60;;;;;;;;;;5041387;28;20067;-71
2021/07/13 13:28:53;;;;;;;31.67;7.15;;;;;;;;;;5041394;28;20398;-71
2021/07/13 13:31:19;;;;;;;12.05;4.70;;;;;;;;;;5041493;28;20024;-71
2021/07/13 13:33:51;;;;;;;9.48;3.90;;;;;;;;;;5039740;28;20477;-71
2021/07/13 13:36:30;;;;;;;8.00;3.63;;;;;;;;;;5040805;28;20029;-70
2021/07/13 13:41:24;;;;;;;7.18;4.00;;;;;;;;;;5040934;28;20036;-71
2021/07/13 13:43:50;;;;;;;5.68;3.40;;;;;;;;;;5039122;28;20081;-70
2021/07/13 13:46:17;;;;;;;6.57;4.07;;;;;;;;;;5040435;28;20024;-70
2021/07/13 13:48:43;;;;;;;6.22;3.50;;;;;;;;;;5035357;28;20033;-73
2021/07/13 13:51:10;;;;;;;7.22;3.70;;;;;;;;;;5040971;28;20025;-71
2021/07/13 13:53:37;;;;;;;7.35;4.32;;;;;;;;;;5040512;28;20439;-74
2021/07/13 13:56:05;;;;;;;5.75;3.78;;;;;;;;;;5040400;28;20037;-72
2021/07/13 13:58:31;;;;;;;6.32;3.67;;;;;;;;;;5038979;28;20095;-71
2021/07/13 14:00:57;;;;;;;7.72;3.40;;;;;;;;;;5040979;28;20056;-71
2021/07/13 14:03:23;;;;;;;4.30;3.67;;;;;;;;;;5040403;28;20051;-70
2021/07/13 14:05:49;;;;;;;7.20;4.00;;;;;;;;;;5040853;28;20029;-70
2021/07/13 14:08:17;;;;;;;13.55;4.38;;;;;;;;;;5032785;28;20104;-76
2021/07/13 14:10:43;;;;;;;14.07;4.00;;;;;;;;;;5028630;28;20429;-70
2021/07/13 14:13:09;;;;;;;7.63;3.90;;;;;;;;;;5038512;28;20392;-71
2021/07/13 14:15:35;;;;;;;5.57;4.00;;;;;;;;;;5039282;28;20051;-71
2021/07/13 14:18:01;;;;;;;5.53;4.00;;;;;;;;;;5038106;28;20017;-70
2021/07/13 14:20:28;;;;;;;5.25;3.53;;;;;;;;;;5040662;28;20500;-72
2021/07/13 14:22:54;;;;;;;9.02;3.70;;;;;;;;;;5036048;28;20018;-70
2021/07/13 14:25:20;;;;;;;6.07;3.97;;;;;;;;;;5032055;28;20067;-70
2021/07/13 14:27:47;;;;;;;13.65;4.25;;;;;;;;;;5034053;28;20017;-71
2021/07/13 14:30:14;;;;;;;10.90;4.90;;;;;;;;;;5039404;28;20042;-71
2021/07/13 14:32:40;;;;;;;6.45;4.10;;;;;;;;;;5039211;28;20107;-70
2021/07/13 14:35:07;;;;;;;7.07;4.63;;;;;;;;;;5039129;28;20041;-70
2021/07/13 14:37:33;;;;;;;7.95;4.38;;;;;;;;;;5042906;28;20445;-71
2021/07/13 14:39:59;;;;;;;11.20;4.95;;;;;;;;;;5041392;28;20039;-71
2021/07/13 14:42:27;;;;;;;15.77;5.63;;;;;;;;;;5043867;28;20021;-71
2021/07/13 14:44:53;;;;;;;6.30;4.28;;;;;;;;;;5042606;28;20548;-70
2021/07/13 14:47:20;;;;;;;10.35;4.55;;;;;;;;;;5044453;28;20431;-71
2021/07/13 14:49:48;;;;;;;9.43;4.93;;;;;;;;;;5033214;28;20040;-71